createdAt,value
2023-01-28T00:01:17.641Z,2.05
2023-01-28T00:03:49.156Z,1.63
2023-01-28T00:06:17.872Z,1.74
2023-01-28T00:08:46.210Z,2.20
2023-01-28T00:11:14.781Z,1.43
2023-01-28T00:13:42.932Z,1.56
2023-01-28T00:16:11.657Z,1.90
2023-01-28T00:18:39.623Z,2.03
2023-01-28T00:21:12.964Z,1.50
2023-01-28T00:23:43.221Z,1.94
2023-01-28T00:26:13.014Z,1.80
2023-01-28T00:28:42.287Z,1.82
2023-01-28T00:31:11.781Z,2.03
2023-01-28T00:33:39.714Z,1.83
2023-01-28T00:36:08.373Z,1.83
2023-01-28T00:38:36.664Z,1.47
2023-01-28T00:41:12.382Z,1.38
2023-01-28T00:43:41.542Z,1.56
2023-01-28T00:46:11.487Z,2.02
2023-01-28T00:48:40.883Z,1.58
2023-01-28T00:51:09.901Z,1.76
2023-01-28T00:53:38.717Z,1.93
2023-01-28T00:56:08.842Z,1.72
2023-01-28T00:58:37.106Z,2.12
2023-01-28T01:01:12.292Z,2.20
2023-01-28T01:03:40.960Z,1.97
2023-01-28T01:06:09.622Z,1.83
2023-01-28T01:08:40.331Z,1.95
2023-01-28T01:11:12.249Z,1.94
2023-01-28T01:13:40.222Z,1.97
2023-01-28T01:16:14.202Z,2.16
2023-01-28T01:18:42.463Z,2.07
2023-01-28T01:21:16.421Z,2.04
2023-01-28T01:23:46.695Z,2.27
2023-01-28T01:26:15.355Z,1.97
2023-01-28T01:28:43.767Z,2.35
2023-01-28T01:31:17.758Z,1.96
2023-01-28T01:33:47.652Z,2.47
2023-01-28T01:36:17.443Z,2.19
2023-01-28T01:38:46.103Z,1.92
2023-01-28T01:41:27.606Z,1.98
2023-01-28T01:44:01.600Z,2.07
2023-01-28T01:46:34.389Z,2.05
2023-01-28T01:49:18.323Z,1.99
2023-01-28T01:51:47.764Z,2.25
2023-01-28T01:54:17.202Z,1.83
2023-01-28T01:56:47.670Z,2.07
2023-01-28T01:59:20.182Z,2.15
2023-01-28T02:01:48.375Z,1.93
2023-01-28T02:04:21.169Z,2.09
2023-01-28T02:06:49.554Z,2.24
2023-01-28T02:09:23.573Z,2.15
2023-01-28T02:12:12.604Z,2.12
2023-01-28T02:14:50.471Z,2.22
2023-01-28T02:17:18.752Z,2.03
2023-01-28T02:20:13.461Z,2.14
2023-01-28T02:23:00.487Z,2.27
2023-01-28T02:25:41.041Z,2.51
2023-01-28T02:28:15.410Z,2.28
2023-01-28T02:30:51.220Z,2.55
2023-01-28T02:33:30.521Z,2.18
2023-01-28T02:36:04.082Z,2.22
2023-01-28T02:38:56.763Z,2.44
2023-01-28T02:41:31.493Z,1.89
2023-01-28T02:44:03.042Z,1.95
2023-01-28T02:46:49.813Z,2.23
2023-01-28T02:49:17.871Z,2.18
2023-01-28T02:52:03.692Z,1.67
2023-01-28T02:54:50.562Z,1.73
2023-01-28T02:57:18.437Z,1.78
2023-01-28T03:00:02.944Z,2.30
2023-01-28T03:03:05.483Z,2.00
2023-01-28T03:05:39.157Z,2.06
2023-01-28T03:08:27.812Z,2.43
2023-01-28T03:11:16.154Z,1.82
2023-01-28T03:14:03.701Z,2.00
2023-01-28T03:16:51.789Z,2.09
2023-01-28T03:19:38.781Z,2.23
2023-01-28T03:22:25.667Z,1.77
2023-01-28T03:25:12.902Z,1.57
2023-01-28T03:28:11.294Z,2.08
2023-01-28T03:31:07.702Z,1.50
2023-01-28T03:33:55.081Z,1.82
2023-01-28T03:36:41.746Z,1.63
2023-01-28T03:39:11.077Z,1.98
2023-01-28T03:41:40.164Z,2.15
2023-01-28T03:44:26.642Z,1.51
2023-01-28T03:46:55.004Z,1.61
2023-01-28T03:49:22.942Z,1.39
2023-01-28T03:51:51.143Z,1.65
2023-01-28T03:54:19.631Z,1.83
2023-01-28T03:56:48.812Z,1.87
2023-01-28T03:59:16.758Z,2.08
2023-01-28T04:01:45.085Z,2.02
2023-01-28T04:04:23.217Z,1.66
2023-01-28T04:06:53.097Z,1.91
2023-01-28T04:09:24.791Z,1.62
2023-01-28T04:11:53.792Z,1.89
2023-01-28T04:14:22.432Z,1.97
2023-01-28T04:16:50.812Z,1.74
2023-01-28T04:19:19.078Z,1.38
2023-01-28T04:21:49.232Z,2.19
2023-01-28T04:24:17.456Z,2.07
2023-01-28T04:26:45.601Z,1.78
2023-01-28T04:29:14.218Z,2.24
2023-01-28T04:31:42.144Z,1.58
2023-01-28T04:34:10.521Z,1.88
2023-01-28T04:36:39.101Z,1.59
2023-01-28T04:39:07.130Z,1.48
2023-01-28T04:41:36.048Z,1.79
2023-01-28T04:44:04.812Z,1.94
2023-01-28T04:46:33.233Z,1.92
2023-01-28T04:49:02.431Z,1.62
2023-01-28T04:51:30.952Z,1.75
2023-01-28T04:53:59.078Z,1.37
2023-01-28T04:56:27.281Z,1.38
2023-01-28T04:58:56.266Z,1.52
2023-01-28T05:01:25.329Z,1.36
2023-01-28T05:03:54.344Z,1.49
2023-01-28T05:06:22.832Z,1.72
2023-01-28T05:08:51.415Z,1.41
2023-01-28T05:11:19.971Z,1.58
2023-01-28T05:13:48.672Z,1.92
2023-01-28T05:16:16.564Z,1.58
2023-01-28T05:18:44.921Z,1.73
2023-01-28T05:21:14.051Z,1.52
2023-01-28T05:23:42.112Z,1.53
2023-01-28T05:26:10.660Z,1.58
2023-01-28T05:28:39.487Z,1.62
2023-01-28T05:31:10.811Z,1.85
2023-01-28T05:33:39.585Z,1.63
2023-01-28T05:36:09.152Z,1.48
2023-01-28T05:38:37.192Z,1.46
2023-01-28T05:41:05.544Z,1.56
2023-01-28T05:43:33.632Z,1.32
2023-01-28T05:46:02.328Z,1.51
2023-01-28T05:48:30.823Z,1.50
2023-01-28T05:50:59.324Z,1.43
2023-01-28T05:53:29.475Z,1.73
2023-01-28T05:55:58.247Z,1.47
2023-01-28T05:58:29.362Z,1.36
2023-01-28T06:00:58.503Z,1.63
2023-01-28T06:03:28.497Z,1.24
2023-01-28T06:05:56.953Z,1.44
2023-01-28T06:08:25.037Z,1.51
2023-01-28T06:10:53.793Z,1.61
2023-01-28T06:13:22.522Z,1.29
2023-01-28T06:15:53.171Z,1.44
2023-01-28T06:18:21.416Z,1.52
2023-01-28T06:20:50.618Z,1.58
2023-01-28T06:23:19.130Z,1.51
2023-01-28T06:25:47.252Z,1.56
2023-01-28T06:28:15.390Z,1.61
2023-01-28T06:30:44.957Z,1.27
2023-01-28T06:33:12.890Z,1.64
2023-01-28T06:35:40.881Z,1.77
2023-01-28T06:38:09.181Z,1.63
2023-01-28T06:40:37.347Z,1.44
2023-01-28T06:43:06.455Z,1.23
2023-01-28T06:45:34.845Z,1.41
2023-01-28T06:48:04.133Z,1.40
2023-01-28T06:50:32.273Z,1.79
2023-01-28T06:53:00.619Z,1.58
2023-01-28T06:55:28.679Z,1.65
2023-01-28T06:57:56.727Z,1.35
2023-01-28T07:00:25.510Z,1.75
2023-01-28T07:02:57.445Z,1.02
2023-01-28T07:05:26.712Z,1.15
2023-01-28T07:07:54.687Z,1.44
2023-01-28T07:10:22.832Z,1.73
2023-01-28T07:12:51.232Z,1.79
2023-01-28T07:15:19.252Z,1.94
2023-01-28T07:17:47.176Z,1.88
2023-01-28T07:20:16.673Z,1.67
2023-01-28T07:22:46.000Z,1.98
2023-01-28T07:25:14.848Z,1.86
2023-01-28T07:27:48.560Z,1.87
2023-01-28T07:30:17.955Z,1.64
2023-01-28T07:32:47.202Z,1.75
2023-01-28T07:35:16.255Z,1.72
2023-01-28T07:37:54.228Z,1.50
2023-01-28T07:40:23.475Z,1.37
2023-01-28T07:42:52.803Z,1.10
2023-01-28T07:45:24.581Z,1.20
2023-01-28T07:48:00.189Z,1.18
2023-01-28T07:50:29.815Z,1.32
2023-01-28T07:52:58.297Z,1.30
2023-01-28T07:55:28.299Z,1.03
2023-01-28T07:58:00.931Z,1.66
2023-01-28T08:00:31.046Z,1.42
2023-01-28T08:03:01.656Z,1.30
2023-01-28T08:05:39.890Z,1.56
2023-01-28T08:08:09.692Z,1.48
2023-01-28T08:10:38.577Z,1.70
2023-01-28T08:13:07.416Z,1.35
2023-01-28T08:15:37.053Z,1.50
2023-01-28T08:18:06.331Z,1.70
2023-01-28T08:20:35.174Z,1.85
2023-01-28T08:23:16.885Z,1.89
2023-01-28T08:25:45.628Z,1.67
2023-01-28T08:28:15.337Z,2.07
2023-01-28T08:30:43.484Z,2.12
2023-01-28T08:33:13.316Z,1.92
2023-01-28T08:35:42.266Z,2.31
2023-01-28T08:38:12.462Z,2.02
2023-01-28T08:40:40.538Z,2.13
2023-01-28T08:43:09.168Z,2.44
2023-01-28T08:45:37.208Z,2.09
2023-01-28T08:48:08.219Z,2.18
2023-01-28T08:50:38.864Z,2.17
2023-01-28T08:53:11.706Z,2.71
2023-01-28T08:55:40.119Z,2.14
2023-01-28T08:58:14.129Z,2.21
2023-01-28T09:00:43.158Z,1.72
2023-01-28T09:03:11.703Z,2.38
2023-01-28T09:05:40.224Z,2.19
2023-01-28T09:08:11.136Z,2.04
2023-01-28T09:10:39.794Z,1.97
2023-01-28T09:13:09.844Z,2.32
2023-01-28T09:15:38.869Z,1.95
2023-01-28T09:18:07.092Z,2.07
2023-01-28T09:20:35.323Z,2.02
2023-01-28T09:23:04.712Z,2.22
2023-01-28T09:25:36.434Z,1.90
2023-01-28T09:28:06.130Z,2.09
2023-01-28T09:30:37.303Z,1.86
2023-01-28T09:33:07.147Z,2.38
2023-01-28T09:35:36.187Z,2.43
2023-01-28T09:38:05.053Z,2.02
2023-01-28T09:40:40.532Z,2.41
2023-01-28T09:43:41.048Z,2.36
2023-01-28T09:46:13.540Z,2.72
2023-01-28T09:48:48.028Z,2.56
2023-01-28T09:51:37.118Z,2.79
2023-01-28T09:54:23.604Z,2.24
2023-01-28T09:56:56.102Z,2.85
2023-01-28T09:59:24.309Z,2.62
2023-01-28T10:02:00.603Z,2.90
2023-01-28T10:04:39.730Z,2.75
2023-01-28T10:07:26.707Z,3.19
2023-01-28T10:10:45.590Z,3.25
2023-01-28T10:13:40.082Z,3.44
2023-01-28T10:16:26.913Z,3.42
2023-01-28T10:19:17.137Z,2.99
2023-01-28T10:22:02.695Z,3.17
2023-01-28T10:24:41.352Z,2.96
2023-01-28T10:27:22.554Z,3.32
2023-01-28T10:29:51.687Z,3.14
2023-01-28T10:32:31.022Z,3.57
2023-01-28T10:35:05.011Z,3.40
2023-01-28T10:37:38.189Z,3.44
2023-01-28T10:40:13.631Z,3.92
2023-01-28T10:42:42.451Z,3.95
2023-01-28T10:45:23.963Z,4.05
2023-01-28T10:48:08.201Z,4.17
2023-01-28T10:50:36.472Z,3.78
2023-01-28T10:53:06.668Z,4.21
2023-01-28T10:55:57.736Z,4.72
2023-01-28T10:58:29.104Z,4.99
2023-01-28T11:01:00.524Z,4.68
2023-01-28T11:03:32.520Z,4.34
2023-01-28T11:06:01.203Z,4.92
2023-01-28T11:08:31.265Z,5.43
2023-01-28T11:10:59.632Z,5.17
2023-01-28T11:13:30.216Z,5.01
2023-01-28T11:16:07.093Z,5.21
2023-01-28T11:18:36.481Z,4.59
2023-01-28T11:21:07.579Z,4.47
2023-01-28T11:23:39.841Z,4.35
2023-01-28T11:26:15.845Z,4.17
2023-01-28T11:28:44.722Z,4.13
2023-01-28T11:31:16.201Z,3.46
2023-01-28T11:33:53.712Z,4.11
2023-01-28T11:36:25.493Z,3.99
2023-01-28T11:39:17.512Z,3.95
2023-01-28T11:41:47.541Z,4.70
2023-01-28T11:44:22.847Z,4.32
2023-01-28T11:46:57.294Z,4.50
2023-01-28T11:49:44.989Z,4.50
2023-01-28T11:52:55.529Z,3.78
2023-01-28T11:55:51.518Z,3.76
2023-01-28T11:58:24.514Z,4.17
2023-01-28T12:01:06.200Z,3.79
2023-01-28T12:03:43.872Z,3.94
2023-01-28T12:06:24.789Z,3.77
2023-01-28T12:09:18.848Z,4.01
2023-01-28T12:12:25.962Z,4.21
2023-01-28T12:15:38.919Z,3.83
2023-01-28T12:18:36.044Z,4.18
2023-01-28T12:21:09.630Z,3.95
2023-01-28T12:24:10.504Z,3.90
2023-01-28T12:26:46.232Z,3.54
2023-01-28T12:29:26.233Z,3.58
2023-01-28T12:32:29.147Z,3.72
2023-01-28T12:35:18.884Z,4.12
2023-01-28T12:38:03.901Z,3.80
2023-01-28T12:40:45.821Z,3.95
2023-01-28T12:43:21.515Z,3.78
2023-01-28T12:45:57.052Z,3.70
2023-01-28T12:48:47.399Z,4.05
2023-01-28T12:51:18.664Z,3.80
2023-01-28T12:54:00.454Z,3.91
2023-01-28T12:56:40.366Z,4.37
2023-01-28T12:59:27.028Z,3.93
2023-01-28T13:02:07.064Z,3.50
2023-01-28T13:04:43.103Z,4.30
2023-01-28T13:07:16.242Z,4.07
2023-01-28T13:10:23.023Z,4.36
2023-01-28T13:12:51.672Z,4.18
2023-01-28T13:15:20.553Z,4.37
2023-01-28T13:18:03.070Z,4.36
2023-01-28T13:20:54.140Z,3.74
2023-01-28T13:23:38.328Z,3.83
2023-01-28T13:26:41.702Z,3.93
2023-01-28T13:29:15.785Z,3.86
2023-01-28T13:31:46.648Z,3.95
2023-01-28T13:34:41.104Z,4.07
2023-01-28T13:37:32.917Z,4.17
2023-01-28T13:40:12.822Z,4.60
2023-01-28T13:42:42.018Z,4.37
2023-01-28T13:45:16.678Z,4.21
2023-01-28T13:47:48.108Z,4.16
2023-01-28T13:50:20.599Z,4.26
2023-01-28T13:53:30.455Z,4.11
2023-01-28T13:55:59.863Z,4.18
2023-01-28T13:59:03.872Z,3.79
2023-01-28T14:01:46.017Z,3.57
2023-01-28T14:04:36.094Z,3.91
2023-01-28T14:07:29.101Z,4.02
2023-01-28T14:10:15.893Z,4.19
2023-01-28T14:13:16.642Z,4.05
2023-01-28T14:16:12.256Z,3.73
2023-01-28T14:18:45.995Z,3.78
2023-01-28T14:21:19.799Z,3.46
2023-01-28T14:23:56.139Z,3.79
2023-01-28T14:26:57.904Z,3.56
2023-01-28T14:29:41.214Z,3.89
2023-01-28T14:32:17.923Z,3.07
2023-01-28T14:34:47.037Z,3.09
2023-01-28T14:37:25.570Z,3.33
2023-01-28T14:39:59.179Z,3.61
2023-01-28T14:42:31.757Z,3.60
2023-01-28T14:45:09.814Z,3.70
2023-01-28T14:48:00.493Z,3.39
2023-01-28T14:50:48.049Z,3.61
2023-01-28T14:53:50.170Z,3.40
2023-01-28T14:56:41.431Z,3.71
2023-01-28T14:59:23.134Z,3.53
2023-01-28T15:01:56.577Z,3.46
2023-01-28T15:04:30.895Z,3.00
2023-01-28T15:07:12.868Z,2.89
2023-01-28T15:09:41.388Z,3.10
2023-01-28T15:12:09.690Z,3.32
2023-01-28T15:14:38.252Z,3.06
2023-01-28T15:17:06.876Z,3.00
2023-01-28T15:19:36.681Z,3.22
2023-01-28T15:22:06.775Z,3.45
2023-01-28T15:24:36.136Z,3.53
2023-01-28T15:27:04.480Z,3.29
2023-01-28T15:29:35.602Z,3.37
2023-01-28T15:32:05.431Z,2.54
2023-01-28T15:34:33.608Z,2.55
2023-01-28T15:37:01.993Z,2.87
2023-01-28T15:39:30.967Z,2.69
2023-01-28T15:42:02.253Z,2.64
2023-01-28T15:44:34.179Z,2.69
2023-01-28T15:47:04.959Z,2.79
2023-01-28T15:49:36.304Z,2.77
2023-01-28T15:52:06.040Z,2.90
2023-01-28T15:54:41.224Z,2.83
2023-01-28T15:57:20.963Z,2.91
2023-01-28T15:59:51.573Z,2.48
2023-01-28T16:02:24.536Z,2.47
2023-01-28T16:05:08.672Z,2.78
2023-01-28T16:07:45.378Z,2.65
2023-01-28T16:10:25.222Z,2.31
2023-01-28T16:12:56.182Z,2.94
2023-01-28T16:15:24.585Z,2.80
2023-01-28T16:17:53.015Z,2.91
2023-01-28T16:20:29.592Z,2.76
2023-01-28T16:23:03.175Z,2.69
2023-01-28T16:25:33.842Z,2.96
2023-01-28T16:28:03.588Z,2.39
2023-01-28T16:30:31.778Z,2.38
2023-01-28T16:33:00.543Z,2.55
2023-01-28T16:35:42.490Z,2.33
2023-01-28T16:38:18.755Z,2.69
2023-01-28T16:40:47.940Z,2.61
2023-01-28T16:43:16.998Z,2.65
2023-01-28T16:45:46.380Z,2.25
2023-01-28T16:48:15.069Z,2.47
2023-01-28T16:50:43.704Z,2.55
2023-01-28T16:53:19.397Z,2.39
2023-01-28T16:55:50.249Z,2.28
2023-01-28T16:58:24.042Z,2.41
2023-01-28T17:00:53.376Z,2.51
2023-01-28T17:03:21.696Z,2.63
2023-01-28T17:05:50.104Z,2.29
2023-01-28T17:08:18.715Z,2.50
2023-01-28T17:10:55.100Z,2.41
2023-01-28T17:13:23.910Z,2.57
2023-01-28T17:15:53.275Z,2.36
2023-01-28T17:18:21.586Z,2.33
2023-01-28T17:20:50.157Z,2.30
2023-01-28T17:23:23.219Z,2.91
2023-01-28T17:25:51.721Z,2.87
2023-01-28T17:28:20.045Z,2.91
2023-01-28T17:30:48.272Z,2.99
2023-01-28T17:33:17.052Z,3.31
2023-01-28T17:35:48.902Z,2.90
2023-01-28T17:38:17.411Z,2.67
2023-01-28T17:40:45.554Z,2.40
2023-01-28T17:43:13.729Z,2.59
2023-01-28T17:45:42.229Z,2.75
2023-01-28T17:48:11.433Z,2.66
2023-01-28T17:50:40.694Z,2.74
2023-01-28T17:53:11.064Z,2.94
2023-01-28T17:55:39.411Z,2.84
2023-01-28T17:58:07.634Z,3.15
2023-01-28T18:00:37.141Z,2.90
2023-01-28T18:03:05.626Z,2.56
2023-01-28T18:05:33.713Z,2.97
2023-01-28T18:08:01.872Z,2.81
2023-01-28T18:10:30.437Z,2.81
2023-01-28T18:12:58.751Z,2.71
2023-01-28T18:15:27.041Z,2.50
2023-01-28T18:17:55.419Z,2.62
2023-01-28T18:20:23.620Z,2.81
2023-01-28T18:22:51.679Z,3.07
2023-01-28T18:25:20.660Z,2.55
2023-01-28T18:27:49.547Z,2.67
2023-01-28T18:30:18.599Z,2.64
2023-01-28T18:32:47.170Z,2.70
2023-01-28T18:35:15.578Z,3.01
2023-01-28T18:37:45.083Z,2.73
2023-01-28T18:40:13.801Z,2.85
2023-01-28T18:42:41.898Z,3.00
2023-01-28T18:45:10.483Z,2.98
2023-01-28T18:47:41.692Z,3.10
2023-01-28T18:50:10.128Z,3.12
2023-01-28T18:52:38.714Z,2.78
2023-01-28T18:55:07.394Z,3.10
2023-01-28T18:57:37.070Z,3.31
2023-01-28T19:00:06.204Z,3.34
2023-01-28T19:02:35.989Z,2.89
2023-01-28T19:05:07.583Z,3.29
2023-01-28T19:07:37.632Z,3.13
2023-01-28T19:10:08.119Z,2.31
2023-01-28T19:12:38.914Z,3.01
2023-01-28T19:15:08.315Z,3.25
2023-01-28T19:17:37.001Z,2.81
2023-01-28T19:20:07.930Z,2.82
2023-01-28T19:22:37.956Z,3.21
2023-01-28T19:25:09.112Z,3.41
2023-01-28T19:27:39.588Z,3.35
2023-01-28T19:30:13.139Z,2.61
2023-01-28T19:32:42.614Z,3.14
2023-01-28T19:35:11.918Z,3.14
2023-01-28T19:37:40.752Z,3.17
2023-01-28T19:40:10.468Z,2.64
2023-01-28T19:42:38.971Z,3.14
2023-01-28T19:45:07.554Z,2.76
2023-01-28T19:47:46.491Z,3.20
2023-01-28T19:50:15.760Z,3.20
2023-01-28T19:52:44.856Z,3.13
2023-01-28T19:55:13.166Z,2.78
2023-01-28T19:57:41.264Z,2.35
2023-01-28T20:00:11.850Z,2.89
2023-01-28T20:02:40.291Z,3.33
2023-01-28T20:05:08.813Z,2.94
2023-01-28T20:07:36.852Z,2.71
2023-01-28T20:10:05.694Z,3.36
2023-01-28T20:12:33.750Z,3.31
2023-01-28T20:15:01.834Z,3.33
2023-01-28T20:17:30.612Z,2.98
2023-01-28T20:19:58.707Z,2.37
2023-01-28T20:22:26.774Z,2.70
2023-01-28T20:24:57.409Z,2.57
2023-01-28T20:27:25.906Z,2.56
2023-01-28T20:29:54.404Z,3.15
2023-01-28T20:32:23.482Z,3.25
2023-01-28T20:34:52.402Z,3.39
2023-01-28T20:37:20.911Z,2.60
2023-01-28T20:39:49.092Z,2.67
2023-01-28T20:42:17.236Z,2.73
2023-01-28T20:44:48.361Z,3.30
2023-01-28T20:47:16.476Z,2.46
2023-01-28T20:49:44.562Z,2.70
2023-01-28T20:52:13.224Z,2.67
2023-01-28T20:54:41.413Z,2.81
2023-01-28T20:57:09.423Z,2.96
2023-01-28T20:59:37.856Z,2.57
2023-01-28T21:02:05.853Z,2.87
2023-01-28T21:04:34.240Z,3.04
2023-01-28T21:07:02.718Z,3.10
2023-01-28T21:09:30.731Z,3.26
2023-01-28T21:11:59.082Z,2.39
2023-01-28T21:14:27.530Z,2.20
2023-01-28T21:16:55.644Z,2.55
2023-01-28T21:19:23.911Z,3.00
2023-01-28T21:21:52.275Z,3.12
2023-01-28T21:24:20.419Z,2.65
2023-01-28T21:26:48.594Z,2.89
2023-01-28T21:29:19.068Z,3.14
2023-01-28T21:31:47.083Z,2.79
2023-01-28T21:34:16.165Z,2.51
2023-01-28T21:36:44.813Z,2.68
2023-01-28T21:39:12.841Z,2.92
2023-01-28T21:41:41.002Z,2.43
2023-01-28T21:44:11.975Z,2.80
2023-01-28T21:46:40.598Z,2.89
2023-01-28T21:49:10.564Z,3.06
2023-01-28T21:51:56.833Z,2.79
2023-01-28T21:54:25.112Z,2.51
2023-01-28T21:56:53.670Z,2.74
2023-01-28T21:59:30.859Z,2.27
2023-01-28T22:02:18.433Z,2.44
2023-01-28T22:04:49.576Z,2.42
2023-01-28T22:07:25.455Z,2.40
2023-01-28T22:10:18.987Z,2.28
2023-01-28T22:12:47.043Z,2.56
2023-01-28T22:15:15.444Z,2.47
2023-01-28T22:17:43.528Z,1.99
2023-01-28T22:20:12.013Z,2.18
2023-01-28T22:22:40.488Z,2.22
2023-01-28T22:25:08.923Z,2.06
2023-01-28T22:27:36.897Z,2.09
2023-01-28T22:30:05.900Z,1.98
2023-01-28T22:32:34.154Z,1.83
2023-01-28T22:35:04.911Z,1.88
2023-01-28T22:37:33.287Z,1.67
2023-01-28T22:40:01.587Z,1.82
2023-01-28T22:42:29.755Z,1.86
2023-01-28T22:44:58.203Z,1.56
2023-01-28T22:47:26.283Z,1.59
2023-01-28T22:49:54.293Z,1.63
2023-01-28T22:52:22.728Z,1.66
2023-01-28T22:54:51.868Z,2.17
2023-01-28T22:57:20.012Z,1.63
2023-01-28T22:59:59.723Z,1.88
2023-01-28T23:02:28.720Z,1.61
2023-01-28T23:04:57.180Z,1.87
2023-01-28T23:07:25.243Z,1.47
2023-01-28T23:09:53.349Z,1.42
2023-01-28T23:12:21.900Z,1.64
2023-01-28T23:15:08.435Z,1.46
2023-01-28T23:17:55.731Z,1.80
2023-01-28T23:20:42.505Z,1.30
2023-01-28T23:23:31.751Z,1.79
2023-01-28T23:25:59.734Z,1.65
2023-01-28T23:28:28.319Z,1.24
2023-01-28T23:30:56.537Z,1.28
2023-01-28T23:33:24.963Z,1.38
2023-01-28T23:35:53.423Z,1.57
2023-01-28T23:38:21.522Z,1.51
2023-01-28T23:40:49.625Z,1.63
2023-01-28T23:43:17.962Z,1.49
2023-01-28T23:45:45.931Z,1.28
2023-01-28T23:48:13.954Z,1.66
2023-01-28T23:50:42.530Z,1.61
2023-01-28T23:53:13.432Z,1.45
2023-01-28T23:55:41.441Z,1.81
2023-01-28T23:58:10.038Z,2.05
